createdAt,value
2018-09-25T00:02:07.788Z,94.10
2018-09-25T00:06:17.325Z,93.90
2018-09-25T00:10:26.904Z,94.00
2018-09-25T00:14:36.318Z,94.00
2018-09-25T00:18:46.186Z,93.90
2018-09-25T00:22:55.813Z,94.10
2018-09-25T00:27:05.460Z,94.00
2018-09-25T00:31:14.980Z,94.10
2018-09-25T00:35:24.549Z,94.20
2018-09-25T00:39:34.027Z,94.40
2018-09-25T00:43:43.534Z,94.50
2018-09-25T00:47:53.246Z,94.30
2018-09-25T00:52:02.543Z,94.30
2018-09-25T00:56:12.067Z,94.20
2018-09-25T01:00:21.633Z,94.30
2018-09-25T01:04:31.337Z,94.40
2018-09-25T01:08:40.929Z,94.40
2018-09-25T01:12:50.808Z,94.60
2018-09-25T01:17:00.582Z,94.50
2018-09-25T01:21:11.074Z,94.60
2018-09-25T01:25:20.513Z,94.80
2018-09-25T01:29:31.163Z,94.90
2018-09-25T01:33:40.757Z,95.00
2018-09-25T01:37:50.224Z,95.30
2018-09-25T01:41:59.574Z,95.40
2018-09-25T01:46:09.139Z,95.50
2018-09-25T01:50:18.580Z,95.80
2018-09-25T01:54:28.117Z,95.90
2018-09-25T01:58:38.670Z,96.00
2018-09-25T02:02:48.738Z,95.90
2018-09-25T02:06:58.348Z,95.60
2018-09-25T02:11:07.669Z,95.70
2018-09-25T02:15:17.174Z,95.80
2018-09-25T02:19:26.506Z,95.90
2018-09-25T02:23:35.950Z,95.90
2018-09-25T02:27:45.517Z,95.80
2018-09-25T02:31:55.083Z,96.10
2018-09-25T02:36:13.433Z,96.30
2018-09-25T02:40:22.993Z,96.30
2018-09-25T02:44:32.475Z,96.30
2018-09-25T02:48:42.104Z,96.40
2018-09-25T02:52:51.682Z,96.30
2018-09-25T02:57:01.174Z,96.40
2018-09-25T03:01:10.639Z,96.50
2018-09-25T03:05:20.165Z,97.00
2018-09-25T03:09:29.708Z,96.60
2018-09-25T03:13:39.215Z,96.60
2018-09-25T03:17:48.687Z,96.50
2018-09-25T03:21:58.227Z,96.70
2018-09-25T03:26:07.656Z,97.00
2018-09-25T03:30:17.051Z,96.90
2018-09-25T03:34:26.390Z,97.00
2018-09-25T03:38:35.907Z,97.10
2018-09-25T03:42:45.487Z,97.10
2018-09-25T03:46:55.139Z,97.10
2018-09-25T03:51:04.691Z,96.80
2018-09-25T03:55:14.372Z,96.20
2018-09-25T03:59:23.950Z,95.50
2018-09-25T04:03:33.651Z,95.30
2018-09-25T04:07:43.143Z,95.30
2018-09-25T04:11:52.908Z,95.50
2018-09-25T04:16:02.348Z,95.40
2018-09-25T04:20:11.709Z,95.30
2018-09-25T04:24:21.393Z,95.50
2018-09-25T04:28:30.816Z,95.60
2018-09-25T04:32:40.520Z,95.80
2018-09-25T04:36:58.499Z,95.90
2018-09-25T04:41:11.083Z,96.10
2018-09-25T04:45:20.545Z,96.00
2018-09-25T04:49:30.403Z,96.20
2018-09-25T04:53:40.226Z,96.00
2018-09-25T04:57:49.975Z,97.00
2018-09-25T05:01:59.519Z,97.00
2018-09-25T05:06:09.002Z,97.00
2018-09-25T05:19:00.479Z,96.80
2018-09-25T05:23:09.825Z,97.00
2018-09-25T05:27:19.419Z,97.70
2018-09-25T05:31:29.026Z,97.60
2018-09-25T05:35:38.494Z,97.10
2018-09-25T05:39:48.406Z,97.40
2018-09-25T05:43:57.945Z,97.00
2018-09-25T05:48:07.537Z,96.00
2018-09-25T05:52:17.122Z,95.80
2018-09-25T05:56:26.552Z,96.20
2018-09-25T06:00:36.094Z,96.40
2018-09-25T06:04:45.577Z,96.20
2018-09-25T06:08:56.036Z,95.40
2018-09-25T06:13:05.871Z,95.70
2018-09-25T06:17:15.403Z,96.00
2018-09-25T06:21:24.971Z,95.90
2018-09-25T06:25:34.367Z,95.80
2018-09-25T06:29:43.887Z,95.70
2018-09-25T06:33:53.459Z,95.80
2018-09-25T06:38:02.870Z,95.80
2018-09-25T06:42:12.416Z,95.70
2018-09-25T06:46:22.122Z,95.50
2018-09-25T06:50:31.550Z,95.20
2018-09-25T06:54:41.125Z,93.60
2018-09-25T06:58:50.568Z,92.40
2018-09-25T07:03:00.096Z,91.40
2018-09-25T07:07:09.656Z,90.40
2018-09-25T07:11:19.431Z,89.80
2018-09-25T07:15:29.048Z,89.20
2018-09-25T07:19:38.653Z,87.40
2018-09-25T07:23:48.223Z,87.80
2018-09-25T07:27:57.801Z,86.50
2018-09-25T07:32:07.203Z,85.40
2018-09-25T07:36:16.812Z,84.40
2018-09-25T07:40:26.324Z,83.70
2018-09-25T07:44:35.807Z,82.90
2018-09-25T07:48:45.273Z,81.20
2018-09-25T07:52:55.942Z,81.50
2018-09-25T07:57:05.485Z,81.40
2018-09-25T08:01:15.187Z,81.70
2018-09-25T08:05:24.983Z,79.70
2018-09-25T08:09:34.623Z,79.00
2018-09-25T08:13:44.348Z,77.50
2018-09-25T08:17:53.994Z,77.60
2018-09-25T08:22:03.537Z,75.70
2018-09-25T08:26:13.188Z,76.10
2018-09-25T08:30:22.798Z,73.10
2018-09-25T08:34:32.244Z,73.40
2018-09-25T08:38:41.767Z,73.70
2018-09-25T08:42:51.383Z,72.20
2018-09-25T08:47:01.106Z,73.70
2018-09-25T08:51:11.608Z,72.40
2018-09-25T08:55:21.135Z,71.90
2018-09-25T08:59:30.687Z,71.00
2018-09-25T09:03:40.160Z,68.50
2018-09-25T09:07:49.938Z,64.10
2018-09-25T09:11:59.526Z,53.80
2018-09-25T09:16:08.963Z,49.70
2018-09-25T09:20:18.463Z,46.70
2018-09-25T09:24:27.951Z,46.00
2018-09-25T09:28:37.549Z,50.40
2018-09-25T09:32:47.598Z,46.30
2018-09-25T09:36:57.191Z,44.20
2018-09-25T09:41:07.808Z,43.90
2018-09-25T09:45:18.882Z,42.60
2018-09-25T09:49:28.725Z,46.50
2018-09-25T09:53:38.072Z,52.10
2018-09-25T09:57:49.144Z,57.50
2018-09-25T10:01:58.696Z,60.50
2018-09-25T10:06:08.433Z,63.20
2018-09-25T10:10:18.227Z,64.40
2018-09-25T10:14:27.758Z,66.00
2018-09-25T10:18:37.168Z,65.70
2018-09-25T10:22:46.967Z,65.80
2018-09-25T10:26:56.411Z,66.00
2018-09-25T10:31:05.726Z,65.90
2018-09-25T10:35:15.392Z,65.50
2018-09-25T10:39:25.052Z,66.60
2018-09-25T10:43:34.461Z,66.90
2018-09-25T10:47:43.903Z,68.00
2018-09-25T10:51:53.343Z,66.90
2018-09-25T10:56:03.032Z,66.30
2018-09-25T11:00:12.585Z,67.10
2018-09-25T11:04:21.932Z,67.20
2018-09-25T11:08:31.410Z,65.80
2018-09-25T11:12:40.882Z,66.70
2018-09-25T11:16:50.608Z,66.60
2018-09-25T11:21:00.106Z,66.40
2018-09-25T11:25:09.696Z,66.60
2018-09-25T11:29:20.333Z,63.40
2018-09-25T11:33:29.638Z,65.50
2018-09-25T11:37:39.115Z,65.20
2018-09-25T11:41:48.885Z,64.70
2018-09-25T11:45:58.509Z,64.30
2018-09-25T11:50:08.126Z,65.10
2018-09-25T11:54:17.739Z,64.80
2018-09-25T11:58:27.151Z,62.40
2018-09-25T12:02:36.663Z,61.30
2018-09-25T12:06:46.047Z,60.40
2018-09-25T12:10:55.611Z,61.60
2018-09-25T12:15:05.082Z,61.20
2018-09-25T12:19:14.718Z,61.30
2018-09-25T12:23:24.409Z,60.90
2018-09-25T12:27:33.783Z,61.80
2018-09-25T12:31:43.635Z,61.60
2018-09-25T12:35:53.242Z,63.00
2018-09-25T12:40:02.654Z,63.30
2018-09-25T12:44:12.217Z,63.30
2018-09-25T12:48:21.722Z,64.20
2018-09-25T12:52:31.088Z,66.50
2018-09-25T12:56:40.635Z,67.30
2018-09-25T13:00:50.053Z,67.70
2018-09-25T13:04:59.538Z,67.90
2018-09-25T13:09:09.168Z,69.20
2018-09-25T13:13:18.758Z,69.30
2018-09-25T13:17:28.226Z,69.40
2018-09-25T13:21:37.815Z,70.10
2018-09-25T13:25:47.272Z,70.90
2018-09-25T13:29:56.826Z,71.80
2018-09-25T13:34:06.363Z,72.60
2018-09-25T13:38:16.215Z,71.60
2018-09-25T13:42:25.755Z,71.80
2018-09-25T13:46:35.492Z,71.80
2018-09-25T13:50:45.012Z,71.10
2018-09-25T13:54:54.541Z,71.30
2018-09-25T13:59:03.954Z,71.90
2018-09-25T14:03:13.547Z,72.30
2018-09-25T14:07:23.154Z,72.10
2018-09-25T14:11:32.594Z,72.80
2018-09-25T14:15:42.052Z,72.70
2018-09-25T14:19:51.595Z,72.40
2018-09-25T14:24:01.058Z,72.20
2018-09-25T14:28:11.657Z,72.40
2018-09-25T14:32:21.351Z,71.90
2018-09-25T14:36:30.742Z,70.70
2018-09-25T14:40:40.064Z,69.90
2018-09-25T14:44:49.608Z,70.20
2018-09-25T14:48:59.135Z,70.80
2018-09-25T14:53:08.919Z,72.00
2018-09-25T14:57:19.205Z,72.70
2018-09-25T15:01:28.603Z,72.40
2018-09-25T15:05:38.095Z,71.80
2018-09-25T15:09:47.555Z,71.00
2018-09-25T15:13:57.114Z,71.00
2018-09-25T15:18:06.755Z,70.40
2018-09-25T15:22:16.462Z,69.90
2018-09-25T15:26:25.615Z,69.70
2018-09-25T15:30:35.978Z,70.20
2018-09-25T15:34:45.530Z,69.50
2018-09-25T15:38:55.107Z,69.70
2018-09-25T15:43:04.711Z,70.00
2018-09-25T15:47:14.147Z,69.50
2018-09-25T15:51:23.564Z,69.20
2018-09-25T15:55:33.111Z,69.10
2018-09-25T15:59:42.538Z,69.50
2018-09-25T16:03:52.195Z,69.90
2018-09-25T16:08:01.531Z,69.30
2018-09-25T16:12:12.063Z,69.10
2018-09-25T16:16:21.540Z,68.20
2018-09-25T16:20:31.013Z,67.90
2018-09-25T16:24:41.005Z,67.30
2018-09-25T16:28:50.825Z,68.80
2018-09-25T16:33:00.316Z,70.10
2018-09-25T16:37:09.920Z,70.90
2018-09-25T16:41:19.626Z,71.60
2018-09-25T16:47:14.386Z,72.50
2018-09-25T16:51:23.977Z,72.50
2018-09-25T16:55:33.463Z,71.90
2018-09-25T16:59:43.209Z,72.40
2018-09-25T17:03:53.378Z,73.00
2018-09-25T17:08:03.023Z,75.90
2018-09-25T17:12:13.004Z,78.10
2018-09-25T17:16:22.543Z,79.10
2018-09-25T17:20:32.105Z,79.40
2018-09-25T17:24:41.715Z,80.20
2018-09-25T17:28:51.555Z,80.60
2018-09-25T17:33:01.134Z,80.90
2018-09-25T17:37:10.540Z,80.90
2018-09-25T17:41:20.036Z,81.70
2018-09-25T17:45:29.376Z,81.70
2018-09-25T17:49:38.913Z,81.70
2018-09-25T17:53:48.388Z,81.50
2018-09-25T17:57:57.843Z,82.80
2018-09-25T18:02:07.188Z,82.70
2018-09-25T18:06:16.906Z,83.40
2018-09-25T18:10:26.498Z,85.50
2018-09-25T18:14:35.961Z,84.60
2018-09-25T18:18:45.363Z,84.90
2018-09-25T18:22:54.901Z,85.20
2018-09-25T18:27:04.522Z,85.80
2018-09-25T18:31:14.239Z,85.70
2018-09-25T18:38:24.548Z,85.90
2018-09-25T18:42:34.214Z,86.40
2018-09-25T18:46:43.700Z,87.40
2018-09-25T18:50:53.524Z,87.60
2018-09-25T18:55:03.173Z,87.70
2018-09-25T18:59:12.737Z,88.50
2018-09-25T19:03:22.205Z,89.10
2018-09-25T19:07:31.727Z,90.10
2018-09-25T19:11:41.767Z,90.00
2018-09-25T19:15:51.463Z,90.50
2018-09-25T19:20:00.996Z,90.50
2018-09-25T19:24:10.479Z,90.30
2018-09-25T19:28:20.238Z,90.70
2018-09-25T19:32:29.549Z,90.80
2018-09-25T19:36:39.036Z,91.00
2018-09-25T19:40:48.620Z,90.70
2018-09-25T19:44:58.100Z,90.60
2018-09-25T19:49:07.516Z,92.90
2018-09-25T19:53:17.137Z,99.50
2018-09-25T19:57:26.895Z,91.00
2018-09-25T20:01:36.622Z,91.10
2018-09-25T20:05:46.167Z,90.90
2018-09-25T20:09:55.818Z,88.50
2018-09-25T20:14:05.341Z,86.90
2018-09-25T20:18:14.877Z,86.20
2018-09-25T20:22:24.403Z,85.80
2018-09-25T20:26:33.901Z,86.00
2018-09-25T20:30:43.395Z,85.90
2018-09-25T20:34:52.798Z,85.70
2018-09-25T20:39:02.690Z,84.60
2018-09-25T20:43:12.560Z,86.00
2018-09-25T20:47:22.307Z,85.80
2018-09-25T20:51:31.855Z,85.10
2018-09-25T20:55:41.133Z,84.60
2018-09-25T20:59:50.683Z,85.80
2018-09-25T21:04:00.069Z,86.20
2018-09-25T21:08:09.667Z,86.00
2018-09-25T21:12:19.299Z,86.10
2018-09-25T21:16:28.828Z,86.60
2018-09-25T21:20:38.315Z,87.30
2018-09-25T21:24:48.881Z,86.70
2018-09-25T21:28:58.168Z,86.90
2018-09-25T21:33:07.647Z,86.70
2018-09-25T21:37:17.082Z,87.10
2018-09-25T21:41:26.719Z,87.90
2018-09-25T21:45:36.959Z,88.20
2018-09-25T21:49:46.415Z,88.20
2018-09-25T21:53:55.993Z,88.20
2018-09-25T21:58:05.540Z,88.70
2018-09-25T22:02:14.904Z,89.00
2018-09-25T22:06:24.360Z,89.90
2018-09-25T22:10:33.782Z,90.20
2018-09-25T22:14:43.329Z,90.00
2018-09-25T22:18:52.811Z,90.00
2018-09-25T22:23:02.383Z,90.10
2018-09-25T22:27:11.892Z,90.20
2018-09-25T22:31:21.309Z,90.00
2018-09-25T22:35:30.719Z,89.30
2018-09-25T22:39:40.769Z,88.70
2018-09-25T22:43:50.321Z,88.50
2018-09-25T22:47:59.826Z,89.10
2018-09-25T22:52:09.292Z,89.40
2018-09-25T22:56:20.759Z,90.10
2018-09-25T23:00:30.234Z,90.00
2018-09-25T23:04:39.669Z,88.60
2018-09-25T23:08:49.230Z,88.30
2018-09-25T23:12:58.740Z,87.70
2018-09-25T23:17:08.277Z,89.00
2018-09-25T23:21:18.057Z,89.80
2018-09-25T23:25:27.410Z,89.70
2018-09-25T23:29:37.005Z,88.70
2018-09-25T23:33:46.647Z,87.90
2018-09-25T23:37:57.087Z,88.00
2018-09-25T23:42:05.687Z,88.00
2018-09-25T23:46:19.198Z,87.70
2018-09-25T23:50:26.979Z,88.00
2018-09-25T23:54:36.246Z,88.40
2018-09-25T23:58:47.741Z,88.60
